sensor_id;sensor_type;location;lat;lon;timestamp;temperature;humidity
11704;DHT22;5908;51.354;7.458;2023-11-19T00:01:33;11.90;99.90
11704;DHT22;5908;51.354;7.458;2023-11-19T00:04:00;11.90;99.90
11704;DHT22;5908;51.354;7.458;2023-11-19T00:06:27;12.00;99.90
11704;DHT22;5908;51.354;7.458;2023-11-19T00:08:54;12.00;99.90
11704;DHT22;5908;51.354;7.458;2023-11-19T00:11:21;12.00;99.90
11704;DHT22;5908;51.354;7.458;2023-11-19T00:13:47;12.00;99.90
11704;DHT22;5908;51.354;7.458;2023-11-19T00:16:15;12.00;99.90
11704;DHT22;5908;51.354;7.458;2023-11-19T00:18:43;12.10;99.90
11704;DHT22;5908;51.354;7.458;2023-11-19T00:21:10;12.10;99.90
11704;DHT22;5908;51.354;7.458;2023-11-19T00:23:36;12.20;99.90
11704;DHT22;5908;51.354;7.458;2023-11-19T00:26:04;12.20;99.90
11704;DHT22;5908;51.354;7.458;2023-11-19T00:28:31;12.20;99.90
11704;DHT22;5908;51.354;7.458;2023-11-19T00:30:58;12.30;99.90
11704;DHT22;5908;51.354;7.458;2023-11-19T00:33:27;12.30;99.90
11704;DHT22;5908;51.354;7.458;2023-11-19T00:35:53;12.30;99.90
11704;DHT22;5908;51.354;7.458;2023-11-19T00:38:21;12.30;99.90
11704;DHT22;5908;51.354;7.458;2023-11-19T00:40:47;12.40;99.90
11704;DHT22;5908;51.354;7.458;2023-11-19T00:43:14;12.40;99.90
11704;DHT22;5908;51.354;7.458;2023-11-19T00:45:41;12.40;99.90
11704;DHT22;5908;51.354;7.458;2023-11-19T00:48:08;12.30;99.90
11704;DHT22;5908;51.354;7.458;2023-11-19T00:50:36;12.30;99.90
11704;DHT22;5908;51.354;7.458;2023-11-19T00:53:03;12.30;99.90
11704;DHT22;5908;51.354;7.458;2023-11-19T00:55:30;12.40;99.90
11704;DHT22;5908;51.354;7.458;2023-11-19T00:57:57;12.30;99.90
11704;DHT22;5908;51.354;7.458;2023-11-19T01:00:24;12.50;99.90
11704;DHT22;5908;51.354;7.458;2023-11-19T01:02:53;12.50;99.90
11704;DHT22;5908;51.354;7.458;2023-11-19T01:05:20;12.50;99.90
11704;DHT22;5908;51.354;7.458;2023-11-19T01:07:51;12.60;99.90
11704;DHT22;5908;51.354;7.458;2023-11-19T01:10:19;12.60;99.90
11704;DHT22;5908;51.354;7.458;2023-11-19T01:12:46;12.60;99.90
11704;DHT22;5908;51.354;7.458;2023-11-19T01:15:13;12.60;99.90
11704;DHT22;5908;51.354;7.458;2023-11-19T01:17:40;12.70;99.90
11704;DHT22;5908;51.354;7.458;2023-11-19T01:20:07;12.80;99.90
11704;DHT22;5908;51.354;7.458;2023-11-19T01:22:37;12.80;99.90
11704;DHT22;5908;51.354;7.458;2023-11-19T01:25:06;12.90;99.90
11704;DHT22;5908;51.354;7.458;2023-11-19T01:27:33;12.80;99.90
11704;DHT22;5908;51.354;7.458;2023-11-19T01:30:01;13.00;99.90
11704;DHT22;5908;51.354;7.458;2023-11-19T01:32:29;12.90;99.90
11704;DHT22;5908;51.354;7.458;2023-11-19T01:34:55;12.90;99.90
11704;DHT22;5908;51.354;7.458;2023-11-19T01:37:22;12.90;99.90
11704;DHT22;5908;51.354;7.458;2023-11-19T01:39:49;12.90;99.90
11704;DHT22;5908;51.354;7.458;2023-11-19T01:42:17;12.90;99.90
11704;DHT22;5908;51.354;7.458;2023-11-19T01:44:55;13.00;99.90
11704;DHT22;5908;51.354;7.458;2023-11-19T01:47:24;13.00;99.90
11704;DHT22;5908;51.354;7.458;2023-11-19T01:49:51;13.10;99.90
11704;DHT22;5908;51.354;7.458;2023-11-19T01:52:18;13.00;99.90
11704;DHT22;5908;51.354;7.458;2023-11-19T01:54:45;13.10;99.90
11704;DHT22;5908;51.354;7.458;2023-11-19T01:57:13;13.00;99.90
11704;DHT22;5908;51.354;7.458;2023-11-19T01:59:41;13.10;99.90
11704;DHT22;5908;51.354;7.458;2023-11-19T02:02:08;13.00;99.90
11704;DHT22;5908;51.354;7.458;2023-11-19T02:04:35;13.10;99.90
11704;DHT22;5908;51.354;7.458;2023-11-19T02:07:03;13.10;99.90
11704;DHT22;5908;51.354;7.458;2023-11-19T02:09:30;13.10;99.90
11704;DHT22;5908;51.354;7.458;2023-11-19T02:11:57;13.10;99.90
11704;DHT22;5908;51.354;7.458;2023-11-19T02:14:25;13.00;99.90
11704;DHT22;5908;51.354;7.458;2023-11-19T02:16:53;13.10;99.90
11704;DHT22;5908;51.354;7.458;2023-11-19T02:19:20;13.20;99.90
11704;DHT22;5908;51.354;7.458;2023-11-19T02:21:47;13.10;99.90
11704;DHT22;5908;51.354;7.458;2023-11-19T02:24:16;13.10;99.90
11704;DHT22;5908;51.354;7.458;2023-11-19T02:26:51;13.10;99.90
11704;DHT22;5908;51.354;7.458;2023-11-19T02:29:23;13.20;99.90
11704;DHT22;5908;51.354;7.458;2023-11-19T02:31:50;13.20;99.90
11704;DHT22;5908;51.354;7.458;2023-11-19T02:34:16;13.20;99.90
11704;DHT22;5908;51.354;7.458;2023-11-19T02:36:43;13.30;99.90
11704;DHT22;5908;51.354;7.458;2023-11-19T02:39:10;13.30;99.90
11704;DHT22;5908;51.354;7.458;2023-11-19T02:41:38;13.40;99.90
11704;DHT22;5908;51.354;7.458;2023-11-19T02:44:05;13.30;99.90
11704;DHT22;5908;51.354;7.458;2023-11-19T02:46:33;13.30;99.90
11704;DHT22;5908;51.354;7.458;2023-11-19T02:49:00;13.30;99.90
11704;DHT22;5908;51.354;7.458;2023-11-19T02:51:27;13.30;99.90
11704;DHT22;5908;51.354;7.458;2023-11-19T02:53:57;13.30;99.90
11704;DHT22;5908;51.354;7.458;2023-11-19T02:56:24;13.40;99.90
11704;DHT22;5908;51.354;7.458;2023-11-19T02:58:52;13.50;99.90
11704;DHT22;5908;51.354;7.458;2023-11-19T03:01:22;13.50;99.90
11704;DHT22;5908;51.354;7.458;2023-11-19T03:03:57;13.50;99.90
11704;DHT22;5908;51.354;7.458;2023-11-19T03:06:24;13.60;99.90
11704;DHT22;5908;51.354;7.458;2023-11-19T03:08:50;13.60;99.90
11704;DHT22;5908;51.354;7.458;2023-11-19T03:11:17;13.60;99.90
11704;DHT22;5908;51.354;7.458;2023-11-19T03:13:44;13.80;99.90
11704;DHT22;5908;51.354;7.458;2023-11-19T03:16:12;13.80;99.90
11704;DHT22;5908;51.354;7.458;2023-11-19T03:18:39;13.80;99.90
11704;DHT22;5908;51.354;7.458;2023-11-19T03:21:07;13.80;99.90
11704;DHT22;5908;51.354;7.458;2023-11-19T03:23:34;13.80;99.90
11704;DHT22;5908;51.354;7.458;2023-11-19T03:26:01;13.80;99.90
11704;DHT22;5908;51.354;7.458;2023-11-19T03:28:31;13.80;99.90
11704;DHT22;5908;51.354;7.458;2023-11-19T03:30:57;13.80;99.90
11704;DHT22;5908;51.354;7.458;2023-11-19T03:33:24;13.90;99.90
11704;DHT22;5908;51.354;7.458;2023-11-19T03:35:51;13.80;99.90
11704;DHT22;5908;51.354;7.458;2023-11-19T03:38:19;13.80;99.90
11704;DHT22;5908;51.354;7.458;2023-11-19T03:40:46;13.90;99.90
11704;DHT22;5908;51.354;7.458;2023-11-19T03:43:12;13.90;99.90
11704;DHT22;5908;51.354;7.458;2023-11-19T03:45:39;13.90;99.90
11704;DHT22;5908;51.354;7.458;2023-11-19T03:48:06;13.90;99.90
11704;DHT22;5908;51.354;7.458;2023-11-19T03:50:33;13.90;99.90
11704;DHT22;5908;51.354;7.458;2023-11-19T03:53:00;13.90;99.90
11704;DHT22;5908;51.354;7.458;2023-11-19T03:55:29;14.00;99.90
11704;DHT22;5908;51.354;7.458;2023-11-19T03:57:56;14.00;99.90
11704;DHT22;5908;51.354;7.458;2023-11-19T04:00:23;14.00;99.90
11704;DHT22;5908;51.354;7.458;2023-11-19T04:02:50;14.00;99.90
11704;DHT22;5908;51.354;7.458;2023-11-19T04:05:17;14.00;99.90
11704;DHT22;5908;51.354;7.458;2023-11-19T04:07:44;14.10;99.90
11704;DHT22;5908;51.354;7.458;2023-11-19T04:10:11;14.10;99.90
11704;DHT22;5908;51.354;7.458;2023-11-19T04:12:39;14.00;99.90
11704;DHT22;5908;51.354;7.458;2023-11-19T04:15:07;14.00;99.90
11704;DHT22;5908;51.354;7.458;2023-11-19T04:17:34;13.90;99.90
11704;DHT22;5908;51.354;7.458;2023-11-19T04:20:01;13.90;99.90
11704;DHT22;5908;51.354;7.458;2023-11-19T04:22:29;13.90;99.90
11704;DHT22;5908;51.354;7.458;2023-11-19T04:24:56;13.80;99.90
11704;DHT22;5908;51.354;7.458;2023-11-19T04:27:23;13.90;99.90
11704;DHT22;5908;51.354;7.458;2023-11-19T04:29:52;13.90;99.90
11704;DHT22;5908;51.354;7.458;2023-11-19T04:32:18;13.80;99.90
11704;DHT22;5908;51.354;7.458;2023-11-19T04:34:46;13.80;99.90
11704;DHT22;5908;51.354;7.458;2023-11-19T04:37:13;13.80;99.90
11704;DHT22;5908;51.354;7.458;2023-11-19T04:39:44;13.80;99.90
11704;DHT22;5908;51.354;7.458;2023-11-19T04:42:11;13.80;99.90
11704;DHT22;5908;51.354;7.458;2023-11-19T04:44:38;13.80;99.90
11704;DHT22;5908;51.354;7.458;2023-11-19T04:47:06;13.80;99.90
11704;DHT22;5908;51.354;7.458;2023-11-19T04:49:33;13.80;99.90
11704;DHT22;5908;51.354;7.458;2023-11-19T04:51:59;13.70;99.90
11704;DHT22;5908;51.354;7.458;2023-11-19T04:54:26;13.70;99.90
11704;DHT22;5908;51.354;7.458;2023-11-19T04:56:53;13.70;99.90
11704;DHT22;5908;51.354;7.458;2023-11-19T04:59:19;13.70;99.90
11704;DHT22;5908;51.354;7.458;2023-11-19T05:01:47;13.70;99.90
11704;DHT22;5908;51.354;7.458;2023-11-19T05:04:15;13.70;99.90
11704;DHT22;5908;51.354;7.458;2023-11-19T05:06:44;13.70;99.90
11704;DHT22;5908;51.354;7.458;2023-11-19T05:09:10;13.80;99.90
11704;DHT22;5908;51.354;7.458;2023-11-19T05:11:38;13.70;99.90
11704;DHT22;5908;51.354;7.458;2023-11-19T05:14:06;13.80;99.90
11704;DHT22;5908;51.354;7.458;2023-11-19T05:16:32;13.80;99.90
11704;DHT22;5908;51.354;7.458;2023-11-19T05:18:58;13.90;99.90
11704;DHT22;5908;51.354;7.458;2023-11-19T05:21:26;13.80;99.90
11704;DHT22;5908;51.354;7.458;2023-11-19T05:23:53;13.80;99.90
11704;DHT22;5908;51.354;7.458;2023-11-19T05:26:20;13.90;99.90
11704;DHT22;5908;51.354;7.458;2023-11-19T05:28:47;13.80;99.90
11704;DHT22;5908;51.354;7.458;2023-11-19T05:31:15;13.90;99.90
11704;DHT22;5908;51.354;7.458;2023-11-19T05:33:42;13.90;99.90
11704;DHT22;5908;51.354;7.458;2023-11-19T05:36:11;13.80;99.90
11704;DHT22;5908;51.354;7.458;2023-11-19T05:38:39;13.80;99.90
11704;DHT22;5908;51.354;7.458;2023-11-19T05:41:06;13.70;99.90
11704;DHT22;5908;51.354;7.458;2023-11-19T05:43:33;13.70;99.90
11704;DHT22;5908;51.354;7.458;2023-11-19T05:46:00;13.60;99.90
11704;DHT22;5908;51.354;7.458;2023-11-19T05:48:29;13.70;99.90
11704;DHT22;5908;51.354;7.458;2023-11-19T05:50:57;13.70;99.90
11704;DHT22;5908;51.354;7.458;2023-11-19T05:53:24;13.70;99.90
11704;DHT22;5908;51.354;7.458;2023-11-19T05:55:52;13.80;99.90
11704;DHT22;5908;51.354;7.458;2023-11-19T05:58:23;13.80;99.90
11704;DHT22;5908;51.354;7.458;2023-11-19T06:00:51;13.80;99.90
11704;DHT22;5908;51.354;7.458;2023-11-19T06:03:18;13.80;99.90
11704;DHT22;5908;51.354;7.458;2023-11-19T06:05:45;13.80;99.90
11704;DHT22;5908;51.354;7.458;2023-11-19T06:08:12;13.90;99.90
11704;DHT22;5908;51.354;7.458;2023-11-19T06:10:40;13.80;99.90
11704;DHT22;5908;51.354;7.458;2023-11-19T06:13:08;13.90;99.90
11704;DHT22;5908;51.354;7.458;2023-11-19T06:15:35;13.80;99.90
11704;DHT22;5908;51.354;7.458;2023-11-19T06:18:03;13.90;99.90
11704;DHT22;5908;51.354;7.458;2023-11-19T06:20:31;13.80;99.90
11704;DHT22;5908;51.354;7.458;2023-11-19T06:22:57;13.80;99.90
11704;DHT22;5908;51.354;7.458;2023-11-19T06:25:24;13.70;99.90
11704;DHT22;5908;51.354;7.458;2023-11-19T06:27:52;13.60;99.90
11704;DHT22;5908;51.354;7.458;2023-11-19T06:30:20;13.50;99.90
11704;DHT22;5908;51.354;7.458;2023-11-19T06:32:47;13.50;99.90
11704;DHT22;5908;51.354;7.458;2023-11-19T06:35:15;13.60;99.90
11704;DHT22;5908;51.354;7.458;2023-11-19T06:37:42;13.60;99.90
11704;DHT22;5908;51.354;7.458;2023-11-19T06:40:09;13.60;99.90
11704;DHT22;5908;51.354;7.458;2023-11-19T06:42:37;13.60;99.90
11704;DHT22;5908;51.354;7.458;2023-11-19T06:45:05;13.60;99.90
11704;DHT22;5908;51.354;7.458;2023-11-19T06:47:33;13.50;99.90
11704;DHT22;5908;51.354;7.458;2023-11-19T06:50:00;13.50;99.90
11704;DHT22;5908;51.354;7.458;2023-11-19T06:52:29;13.50;99.90
11704;DHT22;5908;51.354;7.458;2023-11-19T06:54:56;13.60;99.90
11704;DHT22;5908;51.354;7.458;2023-11-19T06:57:23;13.50;99.90
11704;DHT22;5908;51.354;7.458;2023-11-19T06:59:53;13.50;99.90
11704;DHT22;5908;51.354;7.458;2023-11-19T07:02:20;13.60;99.90
11704;DHT22;5908;51.354;7.458;2023-11-19T07:04:48;13.40;99.90
11704;DHT22;5908;51.354;7.458;2023-11-19T07:07:15;13.40;99.90
11704;DHT22;5908;51.354;7.458;2023-11-19T07:09:42;13.40;99.90
11704;DHT22;5908;51.354;7.458;2023-11-19T07:12:09;13.30;99.90
11704;DHT22;5908;51.354;7.458;2023-11-19T07:14:36;13.30;99.90
11704;DHT22;5908;51.354;7.458;2023-11-19T07:17:03;13.40;99.90
11704;DHT22;5908;51.354;7.458;2023-11-19T07:19:31;13.40;99.90
11704;DHT22;5908;51.354;7.458;2023-11-19T07:21:59;13.40;99.90
11704;DHT22;5908;51.354;7.458;2023-11-19T07:24:26;13.40;99.90
11704;DHT22;5908;51.354;7.458;2023-11-19T07:26:53;13.40;99.90
11704;DHT22;5908;51.354;7.458;2023-11-19T07:29:20;13.40;99.90
11704;DHT22;5908;51.354;7.458;2023-11-19T07:31:48;13.40;99.90
11704;DHT22;5908;51.354;7.458;2023-11-19T07:34:15;13.40;99.90
11704;DHT22;5908;51.354;7.458;2023-11-19T07:36:42;13.40;99.90
11704;DHT22;5908;51.354;7.458;2023-11-19T07:39:10;13.40;99.90
11704;DHT22;5908;51.354;7.458;2023-11-19T07:41:37;13.40;99.90
11704;DHT22;5908;51.354;7.458;2023-11-19T07:44:04;13.30;99.90
11704;DHT22;5908;51.354;7.458;2023-11-19T07:46:33;13.30;99.90
11704;DHT22;5908;51.354;7.458;2023-11-19T07:49:00;13.20;99.90
11704;DHT22;5908;51.354;7.458;2023-11-19T07:51:28;13.20;99.90
11704;DHT22;5908;51.354;7.458;2023-11-19T07:53:55;13.20;99.90
11704;DHT22;5908;51.354;7.458;2023-11-19T07:56:23;13.10;99.90
11704;DHT22;5908;51.354;7.458;2023-11-19T07:58:49;13.10;99.90
11704;DHT22;5908;51.354;7.458;2023-11-19T08:01:17;13.00;99.90
11704;DHT22;5908;51.354;7.458;2023-11-19T08:03:44;13.10;99.90
11704;DHT22;5908;51.354;7.458;2023-11-19T08:06:11;13.10;99.90
11704;DHT22;5908;51.354;7.458;2023-11-19T08:08:37;13.10;99.90
11704;DHT22;5908;51.354;7.458;2023-11-19T08:11:05;13.10;99.90
11704;DHT22;5908;51.354;7.458;2023-11-19T08:13:34;13.20;99.90
11704;DHT22;5908;51.354;7.458;2023-11-19T08:16:02;13.10;99.90
11704;DHT22;5908;51.354;7.458;2023-11-19T08:18:28;13.20;99.90
11704;DHT22;5908;51.354;7.458;2023-11-19T08:20:55;13.20;99.90
11704;DHT22;5908;51.354;7.458;2023-11-19T08:23:23;13.10;99.90
11704;DHT22;5908;51.354;7.458;2023-11-19T08:25:51;13.10;99.90
11704;DHT22;5908;51.354;7.458;2023-11-19T08:28:18;13.20;99.90
11704;DHT22;5908;51.354;7.458;2023-11-19T08:30:48;13.20;99.90
11704;DHT22;5908;51.354;7.458;2023-11-19T08:33:15;13.30;99.90
11704;DHT22;5908;51.354;7.458;2023-11-19T08:35:42;13.30;99.90
11704;DHT22;5908;51.354;7.458;2023-11-19T08:38:09;13.40;99.90
11704;DHT22;5908;51.354;7.458;2023-11-19T08:40:37;13.50;99.90
11704;DHT22;5908;51.354;7.458;2023-11-19T08:43:04;13.50;99.90
11704;DHT22;5908;51.354;7.458;2023-11-19T08:45:32;13.70;99.90
11704;DHT22;5908;51.354;7.458;2023-11-19T08:48:00;13.80;99.90
11704;DHT22;5908;51.354;7.458;2023-11-19T08:50:26;13.90;99.90
11704;DHT22;5908;51.354;7.458;2023-11-19T08:52:53;14.00;99.90
11704;DHT22;5908;51.354;7.458;2023-11-19T08:55:26;14.00;99.90
11704;DHT22;5908;51.354;7.458;2023-11-19T08:57:53;14.00;99.90
11704;DHT22;5908;51.354;7.458;2023-11-19T09:00:22;14.00;99.90
11704;DHT22;5908;51.354;7.458;2023-11-19T09:02:48;14.00;99.90
11704;DHT22;5908;51.354;7.458;2023-11-19T09:05:17;14.00;99.90
11704;DHT22;5908;51.354;7.458;2023-11-19T09:07:43;14.00;99.90
11704;DHT22;5908;51.354;7.458;2023-11-19T09:10:10;13.90;99.90
11704;DHT22;5908;51.354;7.458;2023-11-19T09:12:39;13.90;99.90
11704;DHT22;5908;51.354;7.458;2023-11-19T09:15:08;14.00;99.90
11704;DHT22;5908;51.354;7.458;2023-11-19T09:17:36;14.20;99.90
11704;DHT22;5908;51.354;7.458;2023-11-19T09:20:04;14.30;99.90
11704;DHT22;5908;51.354;7.458;2023-11-19T09:22:32;14.40;99.90
11704;DHT22;5908;51.354;7.458;2023-11-19T09:24:59;14.40;99.90
11704;DHT22;5908;51.354;7.458;2023-11-19T09:27:26;14.40;99.90
11704;DHT22;5908;51.354;7.458;2023-11-19T09:29:52;14.40;99.90
11704;DHT22;5908;51.354;7.458;2023-11-19T09:32:23;14.40;99.90
11704;DHT22;5908;51.354;7.458;2023-11-19T09:34:51;14.30;99.90
11704;DHT22;5908;51.354;7.458;2023-11-19T09:37:17;14.30;99.90
11704;DHT22;5908;51.354;7.458;2023-11-19T09:39:47;14.20;99.90
11704;DHT22;5908;51.354;7.458;2023-11-19T09:42:13;14.30;99.90
11704;DHT22;5908;51.354;7.458;2023-11-19T09:44:45;14.40;99.90
11704;DHT22;5908;51.354;7.458;2023-11-19T09:47:14;14.60;99.90
11704;DHT22;5908;51.354;7.458;2023-11-19T09:49:42;14.70;99.90
11704;DHT22;5908;51.354;7.458;2023-11-19T09:52:08;14.50;99.90
11704;DHT22;5908;51.354;7.458;2023-11-19T09:54:35;14.50;99.90
11704;DHT22;5908;51.354;7.458;2023-11-19T09:57:06;14.40;99.90
11704;DHT22;5908;51.354;7.458;2023-11-19T09:59:37;14.50;99.90
11704;DHT22;5908;51.354;7.458;2023-11-19T10:02:05;14.70;99.90
11704;DHT22;5908;51.354;7.458;2023-11-19T10:04:35;14.80;99.30
11704;DHT22;5908;51.354;7.458;2023-11-19T10:07:03;14.50;99.50
11704;DHT22;5908;51.354;7.458;2023-11-19T10:09:30;14.50;99.70
11704;DHT22;5908;51.354;7.458;2023-11-19T10:11:57;14.60;99.50
11704;DHT22;5908;51.354;7.458;2023-11-19T10:14:25;14.70;99.40
11704;DHT22;5908;51.354;7.458;2023-11-19T10:16:54;14.90;99.10
11704;DHT22;5908;51.354;7.458;2023-11-19T10:19:22;15.10;98.70
11704;DHT22;5908;51.354;7.458;2023-11-19T10:21:49;15.30;97.40
11704;DHT22;5908;51.354;7.458;2023-11-19T10:24:16;15.10;97.70
11704;DHT22;5908;51.354;7.458;2023-11-19T10:26:43;15.00;98.00
11704;DHT22;5908;51.354;7.458;2023-11-19T10:29:13;15.00;97.80
11704;DHT22;5908;51.354;7.458;2023-11-19T10:31:45;14.90;98.40
11704;DHT22;5908;51.354;7.458;2023-11-19T10:34:25;14.80;98.50
11704;DHT22;5908;51.354;7.458;2023-11-19T10:36:52;14.90;98.10
11704;DHT22;5908;51.354;7.458;2023-11-19T10:39:19;14.80;98.40
11704;DHT22;5908;51.354;7.458;2023-11-19T10:41:49;14.90;98.30
11704;DHT22;5908;51.354;7.458;2023-11-19T10:44:31;14.90;98.10
11704;DHT22;5908;51.354;7.458;2023-11-19T10:47:00;15.00;98.00
11704;DHT22;5908;51.354;7.458;2023-11-19T10:49:27;15.00;97.60
11704;DHT22;5908;51.354;7.458;2023-11-19T10:51:55;14.90;97.80
11704;DHT22;5908;51.354;7.458;2023-11-19T10:54:24;15.00;97.90
11704;DHT22;5908;51.354;7.458;2023-11-19T10:56:55;14.90;97.90
11704;DHT22;5908;51.354;7.458;2023-11-19T10:59:22;14.80;98.40
11704;DHT22;5908;51.354;7.458;2023-11-19T11:01:53;14.80;98.60
11704;DHT22;5908;51.354;7.458;2023-11-19T11:04:24;15.00;98.30
11704;DHT22;5908;51.354;7.458;2023-11-19T11:06:54;15.10;97.80
11704;DHT22;5908;51.354;7.458;2023-11-19T11:09:21;15.10;97.50
11704;DHT22;5908;51.354;7.458;2023-11-19T11:11:50;15.20;97.00
11704;DHT22;5908;51.354;7.458;2023-11-19T11:14:18;15.10;96.70
11704;DHT22;5908;51.354;7.458;2023-11-19T11:16:48;15.20;96.40
11704;DHT22;5908;51.354;7.458;2023-11-19T11:19:16;15.30;96.50
11704;DHT22;5908;51.354;7.458;2023-11-19T11:21:49;15.30;96.20
11704;DHT22;5908;51.354;7.458;2023-11-19T11:24:28;15.30;96.40
11704;DHT22;5908;51.354;7.458;2023-11-19T11:27:10;15.40;95.80
11704;DHT22;5908;51.354;7.458;2023-11-19T11:29:46;15.30;95.80
11704;DHT22;5908;51.354;7.458;2023-11-19T11:32:25;15.40;96.00
11704;DHT22;5908;51.354;7.458;2023-11-19T11:35:06;15.40;95.40
11704;DHT22;5908;51.354;7.458;2023-11-19T11:37:39;15.30;95.40
11704;DHT22;5908;51.354;7.458;2023-11-19T11:40:14;15.30;95.60
11704;DHT22;5908;51.354;7.458;2023-11-19T11:42:41;15.40;95.80
11704;DHT22;5908;51.354;7.458;2023-11-19T11:45:09;15.60;95.10
11704;DHT22;5908;51.354;7.458;2023-11-19T11:48:04;15.60;94.60
11704;DHT22;5908;51.354;7.458;2023-11-19T11:50:34;15.70;94.70
11704;DHT22;5908;51.354;7.458;2023-11-19T11:53:16;15.60;94.40
11704;DHT22;5908;51.354;7.458;2023-11-19T11:55:54;15.50;94.70
11704;DHT22;5908;51.354;7.458;2023-11-19T11:58:26;15.20;94.70
11704;DHT22;5908;51.354;7.458;2023-11-19T12:00:53;15.10;95.30
11704;DHT22;5908;51.354;7.458;2023-11-19T12:03:21;14.90;95.80
11704;DHT22;5908;51.354;7.458;2023-11-19T12:05:48;14.90;96.10
11704;DHT22;5908;51.354;7.458;2023-11-19T12:08:19;14.90;96.40
11704;DHT22;5908;51.354;7.458;2023-11-19T12:10:48;14.80;96.80
11704;DHT22;5908;51.354;7.458;2023-11-19T12:13:16;14.80;96.90
11704;DHT22;5908;51.354;7.458;2023-11-19T12:16:08;14.80;96.90
11704;DHT22;5908;51.354;7.458;2023-11-19T12:18:35;14.70;97.00
11704;DHT22;5908;51.354;7.458;2023-11-19T12:21:02;14.80;96.20
11704;DHT22;5908;51.354;7.458;2023-11-19T12:23:32;14.90;96.20
11704;DHT22;5908;51.354;7.458;2023-11-19T12:26:01;15.00;96.30
11704;DHT22;5908;51.354;7.458;2023-11-19T12:28:29;15.20;95.80
11704;DHT22;5908;51.354;7.458;2023-11-19T12:31:07;15.10;95.30
11704;DHT22;5908;51.354;7.458;2023-11-19T12:33:35;15.20;95.30
11704;DHT22;5908;51.354;7.458;2023-11-19T12:36:04;15.10;95.50
11704;DHT22;5908;51.354;7.458;2023-11-19T12:38:33;15.00;95.30
11704;DHT22;5908;51.354;7.458;2023-11-19T12:41:03;15.00;95.40
11704;DHT22;5908;51.354;7.458;2023-11-19T12:43:30;15.10;95.40
11704;DHT22;5908;51.354;7.458;2023-11-19T12:45:57;15.20;95.10
11704;DHT22;5908;51.354;7.458;2023-11-19T12:48:24;15.20;95.20
11704;DHT22;5908;51.354;7.458;2023-11-19T12:50:51;15.30;95.10
11704;DHT22;5908;51.354;7.458;2023-11-19T12:53:18;15.50;95.00
11704;DHT22;5908;51.354;7.458;2023-11-19T12:55:46;15.50;94.80
11704;DHT22;5908;51.354;7.458;2023-11-19T12:58:29;15.60;94.70
11704;DHT22;5908;51.354;7.458;2023-11-19T13:00:59;15.60;94.50
11704;DHT22;5908;51.354;7.458;2023-11-19T13:03:30;15.70;94.30
11704;DHT22;5908;51.354;7.458;2023-11-19T13:06:04;15.70;94.30
11704;DHT22;5908;51.354;7.458;2023-11-19T13:08:37;15.60;94.00
11704;DHT22;5908;51.354;7.458;2023-11-19T13:11:06;15.50;94.30
11704;DHT22;5908;51.354;7.458;2023-11-19T13:13:53;15.50;94.40
11704;DHT22;5908;51.354;7.458;2023-11-19T13:16:20;15.40;94.40
11704;DHT22;5908;51.354;7.458;2023-11-19T13:18:47;15.30;94.50
11704;DHT22;5908;51.354;7.458;2023-11-19T13:21:14;15.10;95.40
11704;DHT22;5908;51.354;7.458;2023-11-19T13:23:40;14.90;95.80
11704;DHT22;5908;51.354;7.458;2023-11-19T13:26:09;15.10;95.80
11704;DHT22;5908;51.354;7.458;2023-11-19T13:28:36;15.10;95.70
11704;DHT22;5908;51.354;7.458;2023-11-19T13:31:03;15.00;95.40
11704;DHT22;5908;51.354;7.458;2023-11-19T13:33:30;15.10;95.40
11704;DHT22;5908;51.354;7.458;2023-11-19T13:35:56;15.10;96.30
11704;DHT22;5908;51.354;7.458;2023-11-19T13:38:23;15.00;97.40
11704;DHT22;5908;51.354;7.458;2023-11-19T13:40:50;14.90;98.20
11704;DHT22;5908;51.354;7.458;2023-11-19T13:43:19;14.60;99.30
11704;DHT22;5908;51.354;7.458;2023-11-19T13:45:45;14.20;99.90
11704;DHT22;5908;51.354;7.458;2023-11-19T13:48:12;13.70;99.90
11704;DHT22;5908;51.354;7.458;2023-11-19T13:50:39;13.70;99.90
11704;DHT22;5908;51.354;7.458;2023-11-19T13:53:06;13.60;99.90
11704;DHT22;5908;51.354;7.458;2023-11-19T13:55:32;13.70;99.90
11704;DHT22;5908;51.354;7.458;2023-11-19T13:57:59;13.70;99.90
11704;DHT22;5908;51.354;7.458;2023-11-19T14:00:27;13.90;99.90
11704;DHT22;5908;51.354;7.458;2023-11-19T14:02:54;14.00;99.90
11704;DHT22;5908;51.354;7.458;2023-11-19T14:05:21;14.00;99.90
11704;DHT22;5908;51.354;7.458;2023-11-19T14:07:48;13.90;99.90
11704;DHT22;5908;51.354;7.458;2023-11-19T14:10:17;13.90;99.90
11704;DHT22;5908;51.354;7.458;2023-11-19T14:12:44;13.90;99.90
11704;DHT22;5908;51.354;7.458;2023-11-19T14:15:11;13.80;99.90
11704;DHT22;5908;51.354;7.458;2023-11-19T14:17:40;13.80;99.90
11704;DHT22;5908;51.354;7.458;2023-11-19T14:20:07;13.80;99.90
11704;DHT22;5908;51.354;7.458;2023-11-19T14:22:38;13.70;99.90
11704;DHT22;5908;51.354;7.458;2023-11-19T14:25:05;13.60;99.90
11704;DHT22;5908;51.354;7.458;2023-11-19T14:27:35;13.60;99.90
11704;DHT22;5908;51.354;7.458;2023-11-19T14:30:02;13.50;99.90
11704;DHT22;5908;51.354;7.458;2023-11-19T14:32:29;13.60;99.90
11704;DHT22;5908;51.354;7.458;2023-11-19T14:34:57;13.60;99.90
11704;DHT22;5908;51.354;7.458;2023-11-19T14:37:24;13.60;99.90
11704;DHT22;5908;51.354;7.458;2023-11-19T14:39:51;13.60;99.90
11704;DHT22;5908;51.354;7.458;2023-11-19T14:42:18;13.70;99.90
11704;DHT22;5908;51.354;7.458;2023-11-19T14:44:44;13.70;99.90
11704;DHT22;5908;51.354;7.458;2023-11-19T14:47:11;13.70;99.90
11704;DHT22;5908;51.354;7.458;2023-11-19T14:49:38;13.70;99.90
11704;DHT22;5908;51.354;7.458;2023-11-19T14:52:06;13.70;99.90
11704;DHT22;5908;51.354;7.458;2023-11-19T14:54:33;13.80;99.90
11704;DHT22;5908;51.354;7.458;2023-11-19T14:57:00;13.70;99.90
11704;DHT22;5908;51.354;7.458;2023-11-19T14:59:27;13.70;99.90
11704;DHT22;5908;51.354;7.458;2023-11-19T15:01:53;13.70;99.90
11704;DHT22;5908;51.354;7.458;2023-11-19T15:04:20;13.70;99.90
11704;DHT22;5908;51.354;7.458;2023-11-19T15:06:47;13.70;99.90
11704;DHT22;5908;51.354;7.458;2023-11-19T15:09:15;13.60;99.90
11704;DHT22;5908;51.354;7.458;2023-11-19T15:11:42;13.50;99.90
11704;DHT22;5908;51.354;7.458;2023-11-19T15:14:08;13.50;99.90
11704;DHT22;5908;51.354;7.458;2023-11-19T15:16:35;13.50;99.90
11704;DHT22;5908;51.354;7.458;2023-11-19T15:19:02;13.40;99.90
11704;DHT22;5908;51.354;7.458;2023-11-19T15:21:29;13.50;99.90
11704;DHT22;5908;51.354;7.458;2023-11-19T15:23:56;13.40;99.90
11704;DHT22;5908;51.354;7.458;2023-11-19T15:26:24;13.20;99.90
11704;DHT22;5908;51.354;7.458;2023-11-19T15:28:51;13.20;99.90
11704;DHT22;5908;51.354;7.458;2023-11-19T15:31:21;13.20;99.90
11704;DHT22;5908;51.354;7.458;2023-11-19T15:33:48;13.00;99.90
11704;DHT22;5908;51.354;7.458;2023-11-19T15:36:16;12.90;99.90
11704;DHT22;5908;51.354;7.458;2023-11-19T15:38:43;12.90;99.90
11704;DHT22;5908;51.354;7.458;2023-11-19T15:41:09;13.00;99.90
11704;DHT22;5908;51.354;7.458;2023-11-19T15:43:38;13.00;99.90
11704;DHT22;5908;51.354;7.458;2023-11-19T15:46:05;13.00;99.90
11704;DHT22;5908;51.354;7.458;2023-11-19T15:48:33;13.00;99.90
11704;DHT22;5908;51.354;7.458;2023-11-19T15:50:59;13.00;99.90